createdAt,value
2022-12-18T00:01:24.261Z,29.15
2022-12-18T00:03:52.159Z,30.13
2022-12-18T00:06:19.793Z,28.63
2022-12-18T00:08:47.439Z,25.13
2022-12-18T00:11:16.877Z,26.52
2022-12-18T00:13:44.180Z,28.52
2022-12-18T00:16:14.058Z,27.10
2022-12-18T00:18:41.825Z,28.10
2022-12-18T00:21:11.198Z,27.52
2022-12-18T00:23:39.551Z,24.27
2022-12-18T00:26:15.925Z,29.67
2022-12-18T00:28:43.818Z,26.02
2022-12-18T00:31:22.707Z,32.42
2022-12-18T00:33:50.001Z,24.95
2022-12-18T00:36:23.794Z,27.52
2022-12-18T00:38:53.753Z,26.02
2022-12-18T00:41:39.388Z,26.85
2022-12-18T00:44:08.047Z,25.27
2022-12-18T00:46:35.158Z,26.23
2022-12-18T00:49:01.997Z,27.13
2022-12-18T00:51:28.724Z,25.83
2022-12-18T00:53:55.817Z,24.88
2022-12-18T00:56:22.796Z,24.83
2022-12-18T00:58:50.084Z,25.70
2022-12-18T01:01:18.198Z,23.23
2022-12-18T01:03:47.452Z,35.47
2022-12-18T01:06:15.778Z,30.73
2022-12-18T01:08:42.931Z,23.50
2022-12-18T01:11:15.929Z,22.88
2022-12-18T01:13:43.292Z,30.67
2022-12-18T01:16:13.309Z,26.33
2022-12-18T01:18:40.283Z,25.27
2022-12-18T01:21:12.363Z,29.02
2022-12-18T01:23:39.483Z,26.88
2022-12-18T01:26:17.061Z,28.10
2022-12-18T01:28:47.417Z,28.13
2022-12-18T01:31:20.862Z,24.25
2022-12-18T01:33:47.788Z,27.10
2022-12-18T01:36:41.049Z,23.45
2022-12-18T01:39:11.438Z,26.13
2022-12-18T01:41:57.384Z,29.98
2022-12-18T01:44:57.783Z,29.77
2022-12-18T01:47:24.736Z,29.67
2022-12-18T01:49:51.804Z,28.45
2022-12-18T01:52:19.564Z,28.63
2022-12-18T01:54:47.435Z,30.52
2022-12-18T01:57:14.509Z,28.45
2022-12-18T01:59:43.577Z,29.73
2022-12-18T02:02:10.465Z,27.90
2022-12-18T02:04:37.216Z,24.83
2022-12-18T02:07:32.090Z,31.90
2022-12-18T02:10:08.471Z,31.63
2022-12-18T02:12:52.929Z,32.50
2022-12-18T02:15:25.441Z,32.22
2022-12-18T02:17:55.183Z,28.70
2022-12-18T02:20:45.192Z,25.92
2022-12-18T02:23:24.684Z,30.98
2022-12-18T02:26:21.403Z,26.70
2022-12-18T02:29:12.824Z,29.92
2022-12-18T02:31:47.969Z,31.42
2022-12-18T02:34:15.830Z,27.48
2022-12-18T02:36:45.968Z,31.83
2022-12-18T02:39:16.281Z,29.40
2022-12-18T02:41:55.212Z,34.38
2022-12-18T02:44:24.215Z,30.45
2022-12-18T02:46:53.723Z,30.45
2022-12-18T02:49:53.816Z,25.45
2022-12-18T02:52:39.937Z,31.52
2022-12-18T02:55:14.060Z,35.80
2022-12-18T02:57:54.280Z,30.73
2022-12-18T03:00:44.940Z,27.27
2022-12-18T03:03:20.505Z,37.10
2022-12-18T03:06:02.784Z,28.10
2022-12-18T03:08:35.386Z,32.08
2022-12-18T03:11:13.589Z,34.60
2022-12-18T03:13:41.495Z,38.00
2022-12-18T03:16:12.566Z,37.72
2022-12-18T03:18:41.937Z,35.13
2022-12-18T03:21:10.585Z,36.17
2022-12-18T03:23:45.457Z,33.15
2022-12-18T03:26:17.574Z,31.42
2022-12-18T03:28:52.203Z,31.50
2022-12-18T03:31:23.298Z,31.95
2022-12-18T03:34:02.116Z,30.42
2022-12-18T03:36:38.324Z,32.92
2022-12-18T03:39:05.178Z,29.45
2022-12-18T03:41:46.018Z,29.25
2022-12-18T03:44:40.088Z,32.20
2022-12-18T03:47:31.231Z,34.42
2022-12-18T03:50:13.319Z,33.60
2022-12-18T03:52:49.227Z,31.70
2022-12-18T03:55:18.151Z,35.58
2022-12-18T03:57:47.784Z,32.22
2022-12-18T04:00:17.385Z,35.83
2022-12-18T04:02:57.921Z,34.33
2022-12-18T04:05:34.844Z,31.98
2022-12-18T04:08:03.390Z,32.20
2022-12-18T04:10:32.943Z,34.35
2022-12-18T04:13:03.041Z,30.45
2022-12-18T04:15:30.117Z,29.17
2022-12-18T04:17:58.849Z,33.63
2022-12-18T04:20:32.205Z,34.38
2022-12-18T04:22:59.184Z,33.67
2022-12-18T04:25:26.097Z,31.83
2022-12-18T04:28:06.229Z,34.55
2022-12-18T04:30:33.800Z,39.95
2022-12-18T04:33:00.655Z,30.60
2022-12-18T04:35:29.469Z,34.25
2022-12-18T04:37:56.613Z,36.40
2022-12-18T04:40:23.328Z,30.85
2022-12-18T04:42:50.499Z,32.13
2022-12-18T04:45:17.240Z,38.78
2022-12-18T04:47:44.031Z,30.48
2022-12-18T04:50:10.743Z,30.38
2022-12-18T04:52:37.417Z,28.80
2022-12-18T04:55:04.256Z,33.80
2022-12-18T04:57:30.976Z,32.90
2022-12-18T04:59:57.676Z,30.95
2022-12-18T05:02:24.509Z,28.52
2022-12-18T05:04:51.247Z,35.75
2022-12-18T05:07:17.928Z,33.92
2022-12-18T05:09:44.727Z,26.80
2022-12-18T05:12:11.939Z,30.20
2022-12-18T05:14:38.601Z,28.08
2022-12-18T05:17:05.315Z,27.10
2022-12-18T05:19:32.071Z,30.20
2022-12-18T05:21:59.018Z,27.98
2022-12-18T05:24:25.772Z,32.00
2022-12-18T05:26:52.455Z,31.13
2022-12-18T05:29:19.134Z,30.45
2022-12-18T05:31:45.879Z,32.42
2022-12-18T05:34:12.587Z,35.72
2022-12-18T05:36:39.698Z,31.27
2022-12-18T05:39:07.096Z,25.88
2022-12-18T05:41:33.795Z,29.38
2022-12-18T05:44:00.977Z,26.75
2022-12-18T05:46:27.919Z,27.67
2022-12-18T05:48:54.701Z,32.75
2022-12-18T05:51:23.074Z,29.95
2022-12-18T05:53:49.952Z,29.45
2022-12-18T05:56:20.715Z,32.75
2022-12-18T05:58:48.358Z,27.52
2022-12-18T06:01:24.307Z,29.38
2022-12-18T06:03:51.381Z,30.90
2022-12-18T06:06:21.346Z,23.58
2022-12-18T06:08:48.165Z,22.15
2022-12-18T06:11:18.724Z,27.50
2022-12-18T06:13:45.668Z,25.63
2022-12-18T06:16:12.382Z,25.73
2022-12-18T06:18:39.444Z,27.85
2022-12-18T06:21:06.438Z,29.88
2022-12-18T06:23:33.175Z,28.42
2022-12-18T06:26:03.941Z,31.50
2022-12-18T06:28:30.604Z,30.92
2022-12-18T06:30:57.300Z,28.92
2022-12-18T06:33:28.007Z,28.23
2022-12-18T06:36:00.921Z,26.17
2022-12-18T06:38:28.053Z,25.52
2022-12-18T06:40:54.899Z,26.20
2022-12-18T06:43:21.634Z,27.17
2022-12-18T06:45:53.450Z,28.40
2022-12-18T06:48:20.889Z,27.98
2022-12-18T06:50:47.811Z,27.40
2022-12-18T06:53:14.540Z,28.27
2022-12-18T06:55:41.703Z,29.45
2022-12-18T06:58:08.703Z,26.75
2022-12-18T07:00:37.413Z,27.45
2022-12-18T07:03:04.221Z,29.52
2022-12-18T07:05:31.120Z,26.55
2022-12-18T07:07:58.283Z,27.65
2022-12-18T07:10:25.127Z,26.55
2022-12-18T07:12:51.890Z,27.85
2022-12-18T07:15:18.624Z,31.63
2022-12-18T07:17:45.292Z,33.20
2022-12-18T07:20:12.042Z,31.75
2022-12-18T07:22:38.882Z,33.25
2022-12-18T07:25:06.151Z,26.85
2022-12-18T07:27:32.934Z,28.80
2022-12-18T07:29:59.588Z,29.30
2022-12-18T07:32:26.264Z,30.98
2022-12-18T07:34:52.935Z,29.63
2022-12-18T07:37:19.646Z,30.33
2022-12-18T07:39:46.320Z,27.50
2022-12-18T07:42:33.780Z,27.95
2022-12-18T07:45:01.280Z,28.00
2022-12-18T07:47:28.961Z,33.42
2022-12-18T07:49:56.248Z,35.42
2022-12-18T07:52:26.245Z,33.53
2022-12-18T07:54:53.135Z,35.10
2022-12-18T07:57:48.386Z,34.28
2022-12-18T08:00:07.232Z,34.17
2022-12-18T08:02:39.062Z,33.17
2022-12-18T08:05:06.118Z,36.72
2022-12-18T08:07:33.864Z,36.35
2022-12-18T08:10:00.513Z,40.05
2022-12-18T08:12:27.188Z,38.25
2022-12-18T08:14:53.825Z,34.78
2022-12-18T08:17:21.198Z,37.33
2022-12-18T08:19:47.855Z,40.47
2022-12-18T08:22:14.531Z,37.78
2022-12-18T08:24:41.288Z,34.00
2022-12-18T08:29:54.670Z,34.28
2022-12-18T08:32:21.563Z,30.92
2022-12-18T08:34:48.373Z,34.92
2022-12-18T08:37:15.074Z,31.63
2022-12-18T08:39:41.749Z,31.33
2022-12-18T08:42:27.277Z,35.22
2022-12-18T08:44:53.952Z,39.85
2022-12-18T08:47:20.658Z,36.90
2022-12-18T08:49:47.442Z,34.75
2022-12-18T08:52:14.115Z,37.10
2022-12-18T08:54:40.751Z,36.38
2022-12-18T08:57:07.740Z,35.45
2022-12-18T08:59:34.415Z,45.67
2022-12-18T09:02:01.495Z,41.15
2022-12-18T09:04:28.403Z,36.92
2022-12-18T09:06:56.628Z,41.15
2022-12-18T09:09:23.422Z,37.42
2022-12-18T09:11:50.119Z,43.40
2022-12-18T09:14:16.781Z,38.20
2022-12-18T09:16:43.724Z,39.10
2022-12-18T09:19:14.150Z,42.67
2022-12-18T09:21:46.124Z,45.97
2022-12-18T09:24:15.037Z,43.00
2022-12-18T09:26:41.791Z,43.95
2022-12-18T09:29:10.394Z,51.80
2022-12-18T09:31:38.828Z,50.47
2022-12-18T09:34:05.481Z,40.05
2022-12-18T09:36:32.641Z,40.28
2022-12-18T09:39:02.644Z,40.17
2022-12-18T09:41:50.928Z,38.10
2022-12-18T09:44:26.961Z,36.05
2022-12-18T09:47:03.785Z,36.92
2022-12-18T09:49:33.336Z,38.88
2022-12-18T09:52:10.227Z,33.47
2022-12-18T09:54:41.228Z,36.53
2022-12-18T09:57:16.440Z,38.42
2022-12-18T09:59:45.585Z,39.60
2022-12-18T10:02:20.146Z,40.38
2022-12-18T10:05:00.424Z,42.45
2022-12-18T10:07:45.129Z,46.42
2022-12-18T10:10:26.901Z,38.40
2022-12-18T10:13:16.521Z,37.13
2022-12-18T10:15:51.159Z,43.75
2022-12-18T10:18:48.035Z,37.92
2022-12-18T10:21:24.765Z,36.67
2022-12-18T10:24:29.771Z,36.08
2022-12-18T10:27:11.355Z,44.45
2022-12-18T10:29:38.844Z,50.53
2022-12-18T10:32:05.566Z,37.65
2022-12-18T10:34:32.528Z,44.78
2022-12-18T10:37:05.301Z,58.13
2022-12-18T10:39:32.043Z,40.58
2022-12-18T10:42:18.988Z,39.50
2022-12-18T10:44:46.093Z,37.80
2022-12-18T10:47:16.297Z,36.60
2022-12-18T10:49:49.982Z,33.42
2022-12-18T10:52:21.611Z,36.63
2022-12-18T10:54:59.666Z,38.92
2022-12-18T10:57:39.783Z,38.05
2022-12-18T11:00:29.617Z,40.20
2022-12-18T11:02:56.968Z,44.00
2022-12-18T11:05:33.904Z,33.83
2022-12-18T11:08:01.922Z,47.90
2022-12-18T11:10:34.875Z,31.45
2022-12-18T11:13:25.742Z,41.97
2022-12-18T11:15:53.014Z,38.00
2022-12-18T11:18:34.536Z,43.60
2022-12-18T11:21:08.860Z,93.10
2022-12-18T11:23:37.061Z,37.17
2022-12-18T11:26:06.942Z,33.70
2022-12-18T11:28:42.050Z,33.60
2022-12-18T11:31:28.987Z,39.53
2022-12-18T11:34:27.930Z,38.90
2022-12-18T11:36:49.902Z,33.00
2022-12-18T11:39:30.974Z,31.83
2022-12-18T11:42:09.955Z,31.45
2022-12-18T11:44:51.837Z,35.28
2022-12-18T11:47:45.631Z,38.38
2022-12-18T11:50:24.957Z,35.22
2022-12-18T11:52:57.393Z,38.25
2022-12-18T11:55:56.852Z,36.78
2022-12-18T11:58:34.199Z,36.40
2022-12-18T12:01:23.681Z,39.03
2022-12-18T12:04:17.867Z,38.20
2022-12-18T12:07:22.152Z,34.80
2022-12-18T12:10:07.843Z,54.50
2022-12-18T12:13:04.772Z,64.90
2022-12-18T12:15:54.092Z,79.95
2022-12-18T12:18:42.096Z,38.13
2022-12-18T12:21:29.073Z,49.90
2022-12-18T12:24:21.010Z,37.67
2022-12-18T12:26:59.629Z,35.23
2022-12-18T12:29:56.854Z,71.53
2022-12-18T12:32:41.716Z,46.40
2022-12-18T12:35:23.575Z,36.67
2022-12-18T12:38:16.889Z,48.97
2022-12-18T12:41:06.212Z,51.50
2022-12-18T12:43:47.609Z,52.03
2022-12-18T12:46:20.136Z,39.37
2022-12-18T12:48:59.995Z,46.97
2022-12-18T12:51:30.900Z,53.47
2022-12-18T12:53:59.002Z,38.60
2022-12-18T12:56:43.261Z,43.17
2022-12-18T12:59:41.142Z,55.27
2022-12-18T13:03:00.655Z,35.80
2022-12-18T13:05:50.011Z,49.77
2022-12-18T13:08:33.193Z,37.40
2022-12-18T13:11:20.270Z,42.77
2022-12-18T13:13:57.267Z,39.93
2022-12-18T13:16:28.151Z,33.73
2022-12-18T13:18:58.755Z,34.37
2022-12-18T13:21:29.514Z,37.77
2022-12-18T13:23:58.244Z,41.43
2022-12-18T13:26:29.048Z,42.10
2022-12-18T13:28:57.772Z,40.67
2022-12-18T13:31:43.375Z,37.43
2022-12-18T13:34:27.828Z,34.97
2022-12-18T13:36:57.148Z,34.00
2022-12-18T13:39:35.433Z,35.57
2022-12-18T13:42:08.578Z,36.97
2022-12-18T13:44:44.347Z,63.40
2022-12-18T13:47:34.812Z,44.93
2022-12-18T13:50:28.606Z,36.33
2022-12-18T13:52:59.215Z,39.63
2022-12-18T13:55:26.292Z,36.60
2022-12-18T13:58:05.008Z,38.13
2022-12-18T14:00:32.021Z,42.43
2022-12-18T14:03:00.269Z,38.40
2022-12-18T14:05:30.961Z,47.10
2022-12-18T14:08:15.213Z,41.07
2022-12-18T14:10:49.464Z,45.00
2022-12-18T14:13:27.247Z,40.60
2022-12-18T14:15:55.318Z,39.43
2022-12-18T14:18:27.952Z,44.57
2022-12-18T14:20:59.305Z,47.23
2022-12-18T14:23:27.944Z,42.83
2022-12-18T14:25:54.572Z,45.78
2022-12-18T14:28:22.902Z,36.77
2022-12-18T14:30:50.057Z,51.67
2022-12-18T14:33:22.611Z,39.80
2022-12-18T14:35:59.359Z,44.07
2022-12-18T14:38:35.768Z,64.57
2022-12-18T14:41:11.725Z,44.15
2022-12-18T14:43:46.843Z,34.67
2022-12-18T14:46:33.510Z,35.40
2022-12-18T14:49:03.493Z,44.25
2022-12-18T14:51:32.699Z,38.28
2022-12-18T14:54:02.008Z,35.90
2022-12-18T14:56:35.010Z,41.43
2022-12-18T14:59:07.048Z,49.10
2022-12-18T15:01:51.725Z,48.07
2022-12-18T15:04:37.469Z,71.00
2022-12-18T15:07:12.369Z,40.37
2022-12-18T15:09:41.909Z,42.22
2022-12-18T15:12:26.885Z,42.90
2022-12-18T15:14:53.581Z,37.90
2022-12-18T15:17:24.335Z,45.00
2022-12-18T15:20:02.975Z,39.42
2022-12-18T15:22:36.555Z,41.55
2022-12-18T15:25:17.361Z,39.70
2022-12-18T15:27:48.220Z,47.40
2022-12-18T15:30:24.959Z,55.63
2022-12-18T15:32:53.138Z,44.92
2022-12-18T15:35:25.735Z,43.33
2022-12-18T15:37:53.274Z,47.40
2022-12-18T15:40:22.993Z,48.92
2022-12-18T15:43:12.287Z,46.25
2022-12-18T15:45:38.998Z,49.00
2022-12-18T15:48:23.416Z,49.15
2022-12-18T15:50:53.103Z,41.55
2022-12-18T15:53:20.363Z,38.50
2022-12-18T15:56:05.812Z,43.33
2022-12-18T15:58:33.987Z,42.23
2022-12-18T16:01:01.918Z,46.40
2022-12-18T16:03:28.737Z,41.73
2022-12-18T16:05:55.422Z,40.63
2022-12-18T16:08:23.681Z,43.37
2022-12-18T16:10:50.350Z,48.53
2022-12-18T16:13:20.307Z,43.73
2022-12-18T16:15:47.474Z,47.63
2022-12-18T16:18:14.303Z,44.20
2022-12-18T16:20:41.549Z,36.67
2022-12-18T16:23:08.465Z,38.53
2022-12-18T16:25:35.201Z,38.40
2022-12-18T16:28:02.062Z,36.07
2022-12-18T16:30:33.823Z,40.80
2022-12-18T16:33:07.427Z,41.17
2022-12-18T16:35:34.669Z,36.50
2022-12-18T16:38:01.403Z,42.90
2022-12-18T16:40:28.178Z,43.50
2022-12-18T16:42:54.882Z,39.53
2022-12-18T16:45:21.625Z,42.13
2022-12-18T16:47:48.524Z,37.93
2022-12-18T16:50:15.242Z,48.33
2022-12-18T16:52:41.976Z,39.57
2022-12-18T16:55:09.183Z,44.45
2022-12-18T16:57:36.045Z,37.00
2022-12-18T17:00:05.855Z,52.87
2022-12-18T17:02:33.555Z,75.83
2022-12-18T17:05:00.539Z,111.93
2022-12-18T17:07:28.291Z,47.20
2022-12-18T17:09:55.585Z,60.10
2022-12-18T17:12:22.942Z,56.97
2022-12-18T17:14:49.971Z,48.67
2022-12-18T17:17:22.291Z,39.27
2022-12-18T17:19:50.308Z,41.27
2022-12-18T17:22:17.063Z,41.90
2022-12-18T17:24:43.913Z,41.60
2022-12-18T17:27:10.586Z,48.80
2022-12-18T17:29:41.156Z,47.73
2022-12-18T17:32:12.326Z,51.23
2022-12-18T17:34:40.668Z,46.67
2022-12-18T17:37:07.483Z,44.50
2022-12-18T17:39:34.370Z,45.13
2022-12-18T17:42:01.269Z,38.83
2022-12-18T17:44:28.005Z,42.77
2022-12-18T17:46:55.129Z,38.37
2022-12-18T17:49:21.863Z,40.03
2022-12-18T17:51:48.988Z,48.53
2022-12-18T17:54:15.804Z,46.00
2022-12-18T17:56:42.548Z,42.40
2022-12-18T17:59:09.620Z,41.17
2022-12-18T18:01:42.424Z,40.80
2022-12-18T18:04:11.262Z,40.97
2022-12-18T18:06:39.129Z,42.27
2022-12-18T18:09:08.218Z,45.33
2022-12-18T18:12:05.393Z,40.53
2022-12-18T18:14:32.971Z,43.83
2022-12-18T18:17:04.059Z,42.93
2022-12-18T18:19:32.311Z,36.37
2022-12-18T18:21:59.085Z,37.77
2022-12-18T18:24:26.174Z,46.27
2022-12-18T18:26:55.856Z,47.33
2022-12-18T18:29:26.077Z,45.80
2022-12-18T18:31:53.968Z,44.03
2022-12-18T18:34:23.055Z,44.10
2022-12-18T18:36:49.800Z,44.40
2022-12-18T18:39:16.950Z,38.87
2022-12-18T18:41:46.474Z,40.53
2022-12-18T18:44:20.428Z,46.90
2022-12-18T18:46:49.596Z,42.43
2022-12-18T18:49:21.233Z,45.40
2022-12-18T18:51:50.722Z,40.67
2022-12-18T18:54:17.417Z,43.07
2022-12-18T18:59:31.991Z,38.17
2022-12-18T19:02:00.737Z,43.33
2022-12-18T19:04:32.061Z,40.83
2022-12-18T19:06:58.740Z,42.33
2022-12-18T19:09:26.425Z,41.13
2022-12-18T19:12:12.577Z,47.07
2022-12-18T19:14:39.388Z,43.67
2022-12-18T19:17:06.293Z,47.33
2022-12-18T19:19:33.453Z,43.17
2022-12-18T19:22:00.406Z,41.73
2022-12-18T19:24:27.413Z,41.70
2022-12-18T19:26:58.096Z,46.53
2022-12-18T19:29:25.271Z,46.33
2022-12-18T19:31:52.022Z,43.37
2022-12-18T19:34:18.825Z,49.83
2022-12-18T19:36:46.459Z,43.80
2022-12-18T19:39:17.027Z,47.83
2022-12-18T19:41:44.506Z,47.23
2022-12-18T19:44:13.305Z,45.67
2022-12-18T19:46:42.002Z,44.40
2022-12-18T19:49:10.706Z,45.13
2022-12-18T19:51:38.441Z,44.47
2022-12-18T19:54:05.533Z,43.77
2022-12-18T19:56:34.630Z,47.17
2022-12-18T19:59:02.252Z,42.43
2022-12-18T20:01:29.940Z,47.70
2022-12-18T20:03:58.182Z,50.43
2022-12-18T20:06:34.438Z,45.63
2022-12-18T20:09:06.586Z,40.47
2022-12-18T20:11:40.256Z,41.53
2022-12-18T20:14:10.278Z,43.10
2022-12-18T20:16:37.290Z,40.47
2022-12-18T20:19:05.318Z,38.17
2022-12-18T20:21:32.083Z,42.87
2022-12-18T20:24:01.140Z,42.30
2022-12-18T20:26:28.245Z,45.80
2022-12-18T20:28:55.479Z,41.27
2022-12-18T20:31:22.718Z,44.77
2022-12-18T20:33:50.032Z,45.67
2022-12-18T20:36:22.379Z,43.47
2022-12-18T20:38:55.786Z,44.97
2022-12-18T20:41:24.861Z,42.17
2022-12-18T20:43:51.660Z,46.90
2022-12-18T20:46:18.798Z,43.73
2022-12-18T20:48:45.949Z,42.00
2022-12-18T20:51:15.471Z,42.77
2022-12-18T20:53:43.163Z,41.97
2022-12-18T20:56:20.843Z,44.40
2022-12-18T20:58:54.933Z,44.63
2022-12-18T21:01:23.209Z,40.83
2022-12-18T21:03:50.568Z,44.67
2022-12-18T21:06:20.080Z,39.63
2022-12-18T21:08:47.290Z,41.63
2022-12-18T21:11:38.635Z,43.17
2022-12-18T21:14:18.686Z,39.63
2022-12-18T21:16:45.769Z,39.43
2022-12-18T21:19:14.903Z,41.93
2022-12-18T21:21:42.757Z,38.80
2022-12-18T21:24:10.481Z,39.27
2022-12-18T21:26:43.614Z,40.63
2022-12-18T21:29:17.486Z,36.10
2022-12-18T21:31:45.299Z,40.47
2022-12-18T21:34:17.323Z,44.97
2022-12-18T21:36:44.444Z,45.43
2022-12-18T21:39:13.069Z,47.20
2022-12-18T21:41:58.444Z,50.27
2022-12-18T21:44:25.288Z,43.47
2022-12-18T21:46:56.944Z,43.40
2022-12-18T21:49:28.259Z,40.50
2022-12-18T21:51:57.058Z,46.97
2022-12-18T21:54:25.165Z,46.73
2022-12-18T21:57:00.420Z,44.13
2022-12-18T21:59:28.535Z,46.60
2022-12-18T22:01:58.075Z,43.43
2022-12-18T22:04:25.698Z,40.60
2022-12-18T22:06:53.129Z,46.60
2022-12-18T22:09:22.586Z,39.97
2022-12-18T22:11:50.256Z,46.10
2022-12-18T22:14:18.796Z,39.77
2022-12-18T22:16:45.987Z,45.43
2022-12-18T22:19:14.811Z,44.20
2022-12-18T22:21:45.508Z,42.17
2022-12-18T22:24:24.791Z,41.47
2022-12-18T22:26:53.046Z,48.37
2022-12-18T22:29:43.472Z,44.43
2022-12-18T22:32:15.727Z,43.10
2022-12-18T22:34:43.556Z,46.03
2022-12-18T22:37:12.313Z,47.43
2022-12-18T22:39:39.129Z,41.33
2022-12-18T22:42:06.228Z,43.00
2022-12-18T22:44:32.964Z,41.63
2022-12-18T22:47:07.019Z,42.83
2022-12-18T22:49:35.706Z,45.23
2022-12-18T22:52:03.877Z,40.33
2022-12-18T22:54:30.734Z,40.97
2022-12-18T22:56:57.854Z,41.80
2022-12-18T22:59:24.851Z,47.47
2022-12-18T23:01:58.668Z,47.00
2022-12-18T23:04:36.203Z,44.23
2022-12-18T23:07:05.402Z,43.53
2022-12-18T23:09:32.499Z,44.70
2022-12-18T23:11:59.314Z,46.80
2022-12-18T23:14:26.366Z,45.70
2022-12-18T23:16:53.383Z,38.57
2022-12-18T23:19:20.907Z,43.77
2022-12-18T23:21:49.540Z,43.97
2022-12-18T23:24:16.254Z,42.93
2022-12-18T23:26:43.015Z,41.43
2022-12-18T23:29:09.980Z,44.77
2022-12-18T23:31:39.332Z,43.00
2022-12-18T23:34:07.398Z,36.87
2022-12-18T23:36:43.554Z,42.67
2022-12-18T23:39:22.379Z,46.30
2022-12-18T23:41:56.507Z,45.03
2022-12-18T23:44:23.352Z,42.47
2022-12-18T23:46:50.217Z,40.83
2022-12-18T23:49:16.988Z,43.93
2022-12-18T23:51:43.710Z,45.17
2022-12-18T23:54:10.879Z,41.20
2022-12-18T23:56:37.728Z,46.00
2022-12-18T23:59:04.704Z,49.23
